Time;durP1;ratioP1;P1;durP2;ratioP2;P2;SDS_P1;SDS_P2;PMS_P1;PMS_P2;Temp;Humidity;BMP_temperature;BMP_pressure;BME280_temperature;BME280_humidity;BME280_pressure;Samples;Min_cycle;Max_cycle;Signal;HPM_P1;HPM_P2
2023/07/28 00:02:24;;;;;;;2.83;2.38;;;;;;;16.86;100.00;96056.13;5051395;28;20210;-63
2023/07/28 00:04:50;;;;;;;5.43;2.60;;;;;;;16.76;100.00;96050.28;5051534;28;20195;-59
2023/07/28 00:07:17;;;;;;;2.75;2.38;;;;;;;16.75;100.00;96044.13;5051279;28;20206;-62
2023/07/28 00:09:43;;;;;;;3.60;2.85;;;;;;;16.73;100.00;96045.34;5050073;28;20207;-63
2023/07/28 00:12:10;;;;;;;2.78;2.60;;;;;;;16.76;100.00;96045.75;5050506;28;20203;-61
2023/07/28 00:14:36;;;;;;;2.72;2.50;;;;;;;16.77;100.00;96036.75;5051204;28;20199;-64
2023/07/28 00:17:04;;;;;;;2.88;2.65;;;;;;;16.82;100.00;96028.97;5051157;28;20269;-62
2023/07/28 00:19:31;;;;;;;6.75;2.65;;;;;;;16.81;100.00;96024.66;5051430;28;20203;-63
2023/07/28 00:21:59;;;;;;;2.75;2.55;;;;;;;16.83;100.00;96019.94;5053865;28;20191;-61
2023/07/28 00:24:25;;;;;;;3.15;2.60;;;;;;;16.89;100.00;96019.16;5053311;28;21547;-61
2023/07/28 00:26:52;;;;;;;2.25;2.15;;;;;;;16.89;100.00;96021.84;5053031;28;20648;-61
2023/07/28 00:29:18;;;;;;;3.55;2.70;;;;;;;16.91;100.00;96025.13;5053263;28;20841;-62
2023/07/28 00:31:45;;;;;;;2.70;2.50;;;;;;;16.92;100.00;96024.09;5054278;28;20199;-61
2023/07/28 00:34:13;;;;;;;2.60;2.40;;;;;;;16.89;100.00;96019.16;5053302;28;20195;-63
2023/07/28 00:36:40;;;;;;;3.03;2.83;;;;;;;16.98;100.00;96021.66;5051569;28;20223;-62
2023/07/28 00:39:07;;;;;;;3.90;2.88;;;;;;;16.99;100.00;96015.28;5052457;28;20653;-61
2023/07/28 00:41:33;;;;;;;2.80;2.60;;;;;;;17.01;100.00;96010.56;5053525;28;20203;-61
2023/07/28 00:44:00;;;;;;;2.63;2.42;;;;;;;17.03;100.00;96013.88;5054805;28;20640;-61
2023/07/28 00:46:26;;;;;;;3.28;2.67;;;;;;;17.05;100.00;96022.50;5053648;28;20257;-60
2023/07/28 00:48:53;;;;;;;3.20;2.90;;;;;;;17.06;100.00;96025.00;5053008;28;20194;-62
2023/07/28 00:51:22;;;;;;;3.28;2.70;;;;;;;17.10;100.00;96028.09;5051069;28;20551;-61
2023/07/28 00:53:49;;;;;;;2.95;2.70;;;;;;;17.13;100.00;96025.03;5051232;28;20219;-61
2023/07/28 00:56:16;;;;;;;3.88;3.30;;;;;;;17.14;100.00;96032.03;5050533;28;20243;-62
2023/07/28 00:58:42;;;;;;;3.75;3.17;;;;;;;17.12;100.00;96020.69;5060501;28;20222;-62
2023/07/28 01:01:09;;;;;;;6.00;3.00;;;;;;;17.16;100.00;96014.75;5075243;28;20229;-64
2023/07/28 01:03:35;;;;;;;3.75;2.67;;;;;;;17.17;100.00;96021.75;5076305;28;20195;-66
2023/07/28 01:06:14;;;;;;;4.80;2.67;;;;;;;17.13;100.00;96017.00;5074996;28;20201;-65
2023/07/28 01:08:47;;;;;;;3.28;3.08;;;;;;;17.10;100.00;96023.56;5058420;28;20230;-64
2023/07/28 01:11:14;;;;;;;3.00;2.80;;;;;;;17.17;100.00;96024.44;5052399;28;20277;-63
2023/07/28 01:13:40;;;;;;;2.92;2.55;;;;;;;17.15;100.00;96022.97;5050586;28;20211;-61
2023/07/28 01:16:07;;;;;;;2.63;2.42;;;;;;;17.21;100.00;96027.53;5050337;28;20747;-62
2023/07/28 01:18:34;;;;;;;3.80;2.80;;;;;;;17.22;100.00;96023.81;5050782;28;20262;-63
2023/07/28 01:21:02;;;;;;;2.80;2.60;;;;;;;17.22;100.00;96029.16;5050090;28;20204;-63
2023/07/28 01:23:38;;;;;;;2.83;2.60;;;;;;;17.25;100.00;96023.44;5049968;28;20203;-61
2023/07/28 01:26:09;;;;;;;5.60;3.40;;;;;;;17.26;100.00;96025.06;5053698;28;20284;-61
2023/07/28 01:28:37;;;;;;;4.20;3.10;;;;;;;17.25;100.00;96020.78;5053741;28;20199;-62
2023/07/28 01:31:06;;;;;;;2.88;2.58;;;;;;;17.25;100.00;96031.47;5054010;28;20203;-60
2023/07/28 01:33:32;;;;;;;2.70;2.50;;;;;;;17.21;100.00;96027.53;5053822;28;20663;-63
2023/07/28 01:36:00;;;;;;;2.80;2.60;;;;;;;17.21;100.00;96027.53;5054039;28;20229;-61
2023/07/28 01:38:27;;;;;;;2.95;2.70;;;;;;;17.20;100.00;96016.00;5053875;28;20203;-61
2023/07/28 01:40:54;;;;;;;3.80;2.95;;;;;;;17.24;100.00;96021.78;5054329;28;20207;-62
2023/07/28 01:43:20;;;;;;;3.35;3.05;;;;;;;17.24;100.00;96022.63;5053615;28;20203;-60
2023/07/28 01:45:48;;;;;;;3.67;3.00;;;;;;;17.24;100.00;96021.78;5053840;28;20207;-61
2023/07/28 01:48:15;;;;;;;2.70;2.50;;;;;;;17.27;100.00;96032.91;5053961;28;20202;-61
2023/07/28 01:50:41;;;;;;;2.63;2.53;;;;;;;17.26;100.00;96019.72;5054309;28;20203;-61
2023/07/28 01:53:08;;;;;;;3.55;2.97;;;;;;;17.26;100.00;96030.41;5054353;28;20643;-61
2023/07/28 01:55:35;;;;;;;3.75;2.95;;;;;;;17.25;100.00;96034.94;5054641;28;20206;-61
2023/07/28 01:58:03;;;;;;;2.95;2.75;;;;;;;17.27;100.00;96034.75;5054215;28;20562;-62
2023/07/28 02:00:29;;;;;;;2.83;2.63;;;;;;;17.29;100.00;96038.03;5054144;28;20658;-60
2023/07/28 02:02:58;;;;;;;3.67;2.45;;;;;;;17.25;100.00;96032.25;5054163;28;20207;-62
2023/07/28 02:05:25;;;;;;;6.50;2.60;;;;;;;17.25;100.00;96034.94;5054289;28;20210;-63
2023/07/28 02:07:51;;;;;;;5.07;2.80;;;;;;;17.25;100.00;96039.47;5053492;28;20203;-62
2023/07/28 02:10:18;;;;;;;2.55;2.45;;;;;;;17.25;100.00;96050.97;5054116;28;20203;-62
2023/07/28 02:12:45;;;;;;;3.08;2.80;;;;;;;17.29;100.00;96054.06;5053800;28;20839;-62
2023/07/28 02:15:12;;;;;;;3.35;2.75;;;;;;;17.28;100.00;96063.13;5054239;28;20211;-61
2023/07/28 02:17:39;;;;;;;3.40;3.10;;;;;;;17.31;100.00;96076.09;5053860;28;20226;-63
2023/07/28 02:20:10;;;;;;;3.08;2.80;;;;;;;17.34;100.00;96083.69;5053589;28;20207;-63
2023/07/28 02:22:37;;;;;;;3.25;3.00;;;;;;;17.36;100.00;96084.31;5053883;28;20205;-61
2023/07/28 02:25:04;;;;;;;3.38;3.10;;;;;;;17.41;100.00;96084.56;5053323;28;20237;-61
2023/07/28 02:27:30;;;;;;;3.20;2.90;;;;;;;17.44;100.00;96084.16;5052668;28;20834;-61
2023/07/28 02:29:56;;;;;;;3.50;3.20;;;;;;;17.43;100.00;96090.50;5053667;28;20211;-62
2023/07/28 02:32:26;;;;;;;3.67;3.35;;;;;;;17.42;100.00;96088.88;5053451;28;20211;-61
2023/07/28 02:34:53;;;;;;;3.40;3.15;;;;;;;17.38;100.00;96082.28;5053099;28;20265;-63
2023/07/28 02:37:21;;;;;;;3.40;3.08;;;;;;;17.42;100.00;96088.88;5052807;28;20252;-61
2023/07/28 02:39:47;;;;;;;3.40;3.20;;;;;;;17.43;100.00;96090.50;5054989;28;20203;-62
2023/07/28 02:42:14;;;;;;;3.45;3.20;;;;;;;17.41;100.00;96093.41;5052239;28;20215;-62
2023/07/28 02:44:40;;;;;;;3.47;3.17;;;;;;;17.37;100.00;96102.00;5052852;28;20206;-62
2023/07/28 02:47:07;;;;;;;4.40;3.33;;;;;;;17.26;100.00;96108.75;5052383;28;20199;-62
2023/07/28 02:49:33;;;;;;;3.58;3.10;;;;;;;17.22;100.00;96109.31;5052890;28;20203;-62
2023/07/28 02:52:00;;;;;;;4.28;3.05;;;;;;;17.16;100.00;96115.47;5051953;28;20632;-62
2023/07/28 02:54:28;;;;;;;3.75;2.70;;;;;;;17.08;100.00;96119.09;5052672;28;20234;-62
2023/07/28 02:59:34;;;;;;;5.10;3.13;;;;;;;16.92;100.00;96130.94;5053620;28;20199;-61
2023/07/28 03:02:01;;;;;;;3.22;2.45;;;;;;;16.85;100.00;96135.41;5052482;28;20229;-62
2023/07/28 03:04:27;;;;;;;3.10;2.80;;;;;;;16.80;100.00;96132.47;5052339;28;20644;-61
2023/07/28 03:06:56;;;;;;;3.08;2.88;;;;;;;16.74;100.00;96138.59;5052593;28;20297;-63
2023/07/28 03:09:22;;;;;;;3.20;2.60;;;;;;;16.74;100.00;96137.78;5058622;28;20183;-63
2023/07/28 03:11:50;;;;;;;3.30;2.90;;;;;;;16.68;100.00;96142.06;5073815;28;20202;-61
2023/07/28 03:14:17;;;;;;;3.38;2.65;;;;;;;16.66;100.00;96129.91;5064339;28;20363;-65
2023/07/28 03:16:43;;;;;;;3.05;2.85;;;;;;;16.62;100.00;96132.13;5064848;28;20219;-62
2023/07/28 03:19:10;;;;;;;3.75;2.65;;;;;;;16.59;100.00;96134.34;5063487;28;20531;-62
2023/07/28 03:21:36;;;;;;;3.17;2.88;;;;;;;16.51;100.00;96135.28;5053846;28;20564;-62
2023/07/28 03:24:03;;;;;;;2.92;2.65;;;;;;;16.51;100.00;96132.59;5051518;28;20218;-60
2023/07/28 03:26:30;;;;;;;3.80;3.10;;;;;;;16.47;100.00;96131.38;5050545;28;20582;-60
2023/07/28 03:28:58;;;;;;;3.20;2.90;;;;;;;16.41;100.00;96142.78;5052653;28;20203;-62
2023/07/28 03:31:24;;;;;;;2.97;2.70;;;;;;;16.39;100.00;96145.66;5055916;28;20207;-64
2023/07/28 03:33:51;;;;;;;3.58;3.28;;;;;;;16.32;100.00;96138.59;5058103;28;20207;-62
2023/07/28 03:36:19;;;;;;;3.20;3.00;;;;;;;16.30;100.00;96143.28;5059161;28;20265;-61
2023/07/28 03:38:45;;;;;;;3.15;2.95;;;;;;;16.31;100.00;96147.63;5051647;28;20227;-61
2023/07/28 03:41:12;;;;;;;2.97;2.78;;;;;;;16.27;100.00;96146.34;5051328;28;20215;-63
2023/07/28 03:43:39;;;;;;;3.22;2.80;;;;;;;16.23;100.00;96150.41;5051449;28;20192;-61
2023/07/28 03:46:07;;;;;;;4.50;2.92;;;;;;;16.18;100.00;96142.16;5051458;28;20218;-62
2023/07/28 03:48:33;;;;;;;3.45;2.70;;;;;;;16.22;100.00;96143.44;5050968;28;20195;-62
2023/07/28 03:51:00;;;;;;;2.85;2.65;;;;;;;16.23;100.00;96139.72;5051215;28;20226;-62
2023/07/28 03:53:26;;;;;;;3.50;2.90;;;;;;;16.21;100.00;96137.28;5051574;28;20277;-62
2023/07/28 03:55:53;;;;;;;3.10;2.80;;;;;;;16.17;100.00;96145.84;5051284;28;20526;-62
2023/07/28 03:58:20;;;;;;;3.42;3.15;;;;;;;16.18;100.00;96142.16;5050967;28;20487;-63
2023/07/28 04:00:47;;;;;;;3.42;3.13;;;;;;;16.17;100.00;96140.50;5051625;28;20211;-62
2023/07/28 04:03:15;;;;;;;4.07;3.67;;;;;;;16.14;100.00;96146.22;5051448;28;20585;-61
2023/07/28 04:05:41;;;;;;;3.70;3.40;;;;;;;16.14;100.00;96152.38;5050448;28;20648;-63
2023/07/28 04:08:07;;;;;;;4.03;3.08;;;;;;;16.17;100.00;96152.00;5050984;28;20200;-61
2023/07/28 04:10:34;;;;;;;3.95;3.65;;;;;;;16.16;100.00;96144.19;5050958;28;20214;-61
2023/07/28 04:13:00;;;;;;;5.65;5.03;;;;;;;16.17;100.00;96148.50;5050806;28;20207;-62
2023/07/28 04:15:27;;;;;;;6.63;3.13;;;;;;;16.14;100.00;96152.38;5051361;28;20206;-63
2023/07/28 04:17:54;;;;;;;3.50;3.22;;;;;;;16.14;100.00;96147.06;5051069;28;20222;-63
2023/07/28 04:20:22;;;;;;;3.40;2.80;;;;;;;16.19;100.00;96151.81;5050555;28;20218;-63
2023/07/28 04:22:50;;;;;;;3.33;2.97;;;;;;;16.15;100.00;96148.72;5051312;28;20191;-61
2023/07/28 04:25:17;;;;;;;6.13;3.38;;;;;;;16.13;100.00;96158.72;5050277;28;20571;-62
2023/07/28 04:27:43;;;;;;;4.03;2.92;;;;;;;16.10;100.00;96158.28;5050194;28;20192;-61
2023/07/28 04:30:10;;;;;;;3.10;2.90;;;;;;;16.15;100.00;96159.38;5050774;28;20207;-63
2023/07/28 04:32:44;;;;;;;4.20;2.70;;;;;;;16.20;100.00;96159.63;5050985;28;20195;-63
2023/07/28 04:35:11;;;;;;;3.00;2.70;;;;;;;16.19;100.00;96151.81;5050810;28;20202;-63
2023/07/28 04:37:38;;;;;;;3.13;2.80;;;;;;;16.26;100.00;96147.38;5050231;28;20218;-61
2023/07/28 04:40:06;;;;;;;3.65;3.00;;;;;;;16.30;100.00;96151.28;5050387;28;20192;-62
2023/07/28 04:42:32;;;;;;;2.90;2.72;;;;;;;16.35;100.00;96154.22;5050657;28;20222;-63
2023/07/28 04:44:59;;;;;;;3.17;2.95;;;;;;;16.38;100.00;96159.19;5050827;28;20230;-64
2023/07/28 04:47:25;;;;;;;3.50;2.97;;;;;;;16.43;100.00;96151.44;5050921;28;20191;-63
2023/07/28 04:49:52;;;;;;;3.20;2.85;;;;;;;16.47;100.00;96146.56;5050601;28;20213;-64
2023/07/28 04:52:19;;;;;;;3.50;3.13;;;;;;;16.59;100.00;96148.53;5050676;28;20234;-62
2023/07/28 04:54:46;;;;;;;3.63;3.17;;;;;;;16.66;100.00;96153.94;5051050;28;20238;-62
2023/07/28 04:57:13;;;;;;;2.97;2.78;;;;;;;16.71;100.00;96160.34;5050161;28;20219;-62
2023/07/28 04:59:39;;;;;;;4.35;3.40;;;;;;;16.80;100.00;96158.34;5053909;28;20211;-63
2023/07/28 05:02:07;;;;;;;3.40;3.10;;;;;;;16.86;100.00;96153.06;5055014;28;20529;-64
2023/07/28 05:04:34;;;;;;;3.30;3.00;;;;;;;16.95;100.00;96166.28;5054843;28;20191;-62
2023/07/28 05:07:00;;;;;;;3.95;2.90;;;;;;;16.95;100.00;96164.44;5054528;28;20550;-62
2023/07/28 05:09:28;;;;;;;3.80;3.40;;;;;;;17.02;100.00;96167.16;5054750;28;20194;-62
2023/07/28 05:11:56;;;;;;;3.30;3.10;;;;;;;17.12;100.00;96164.97;5054738;28;20203;-63
2023/07/28 05:14:22;;;;;;;3.72;3.42;;;;;;;17.18;100.00;96169.53;5054865;28;20207;-63
2023/07/28 05:16:49;;;;;;;3.47;3.17;;;;;;;17.21;100.00;96172.66;5054479;28;20199;-61
2023/07/28 05:19:15;;;;;;;3.20;3.00;;;;;;;17.29;100.00;96179.66;5064601;28;20210;-64
2023/07/28 05:21:43;;;;;;;3.45;3.13;;;;;;;17.41;100.00;96170.91;5078499;28;20194;-62
2023/07/28 05:24:12;;;;;;;5.85;3.25;;;;;;;17.58;100.00;96171.44;5078581;28;20186;-66
2023/07/28 05:26:38;;;;;;;3.65;3.45;;;;;;;17.78;100.00;96164.34;5055094;28;20187;-61
2023/07/28 05:29:06;;;;;;;3.60;3.30;;;;;;;17.97;100.00;96161.94;5055015;28;20214;-61
2023/07/28 05:31:33;;;;;;;4.13;3.67;;;;;;;18.07;100.00;96167.72;5054149;28;20213;-63
2023/07/28 05:34:00;;;;;;;3.65;3.35;;;;;;;18.13;100.00;96167.78;5054848;28;20282;-62
2023/07/28 05:36:26;;;;;;;4.88;3.80;;;;;;;18.20;100.00;96170.47;5054055;28;20230;-62
2023/07/28 05:38:56;;;;;;;3.70;3.40;;;;;;;18.23;100.00;96170.91;5054317;28;20237;-62
2023/07/28 05:41:23;;;;;;;4.07;3.78;;;;;;;18.27;100.00;96174.00;5053626;28;20222;-61
2023/07/28 05:43:50;;;;;;;4.38;3.67;;;;;;;18.27;100.00;96179.34;5054383;28;20542;-61
2023/07/28 05:46:18;;;;;;;3.90;3.60;;;;;;;18.31;100.00;96180.59;5054145;28;20199;-62
2023/07/28 05:48:45;;;;;;;3.90;3.60;;;;;;;18.29;100.00;96183.47;5054707;28;20208;-61
2023/07/28 05:51:11;;;;;;;3.50;3.25;;;;;;;18.33;100.00;96189.25;5053830;28;20207;-61
2023/07/28 05:53:38;;;;;;;3.70;3.35;;;;;;;18.31;100.00;96180.59;5053876;28;20210;-60
2023/07/28 05:56:05;;;;;;;3.90;3.50;;;;;;;18.45;100.00;96178.78;5053678;28;20195;-62
2023/07/28 05:58:35;;;;;;;3.85;3.50;;;;;;;18.58;100.00;96186.84;5052921;28;20234;-62
2023/07/28 06:01:02;;;;;;;4.28;3.85;;;;;;;18.65;100.00;96188.50;5053572;28;20199;-61
2023/07/28 06:03:30;;;;;;;3.78;3.47;;;;;;;18.74;100.00;96187.28;5053600;28;20297;-63
2023/07/28 06:05:57;;;;;;;3.38;3.17;;;;;;;18.83;100.00;96185.22;5052298;28;20279;-63
2023/07/28 06:08:23;;;;;;;3.80;3.50;;;;;;;18.87;100.00;96186.47;5053875;28;20199;-63
2023/07/28 06:10:50;;;;;;;3.88;3.47;;;;;;;18.85;100.00;96180.47;5052718;28;20249;-61
2023/07/28 06:13:16;;;;;;;3.38;3.17;;;;;;;19.09;100.00;96187.94;5052807;28;20647;-62
2023/07/28 06:15:43;;;;;;;6.55;3.60;;;;;;;19.29;100.00;96191.41;5052797;28;20203;-63
2023/07/28 06:18:11;;;;;;;3.53;3.28;;;;;;;19.43;100.00;96186.03;5053315;28;20223;-60
2023/07/28 06:20:43;;;;;;;3.10;2.90;;;;;;;19.63;100.00;96184.97;5053225;28;20276;-61
2023/07/28 06:23:10;;;;;;;3.33;3.03;;;;;;;19.81;100.00;96185.13;5052170;28;20204;-61
2023/07/28 06:25:38;;;;;;;3.55;2.83;;;;;;;19.91;100.00;96187.34;5052341;28;20227;-62
2023/07/28 06:28:05;;;;;;;2.88;2.67;;;;;;;19.99;100.00;96191.66;5052832;28;20191;-63
2023/07/28 06:30:32;;;;;;;2.70;2.50;;;;;;;20.06;100.00;96197.84;5052817;28;20549;-62
2023/07/28 06:32:59;;;;;;;2.53;2.15;;;;;;;20.09;100.00;96202.78;5053279;28;20199;-62
2023/07/28 06:35:27;;;;;;;3.13;2.45;;;;;;;20.14;100.00;96195.75;5052741;28;20650;-60
2023/07/28 06:37:57;;;;;;;2.28;2.08;;;;;;;20.22;100.00;96210.78;5052542;28;20269;-62
2023/07/28 06:40:24;;;;;;;3.10;2.20;;;;;;;20.30;100.00;96211.38;5053163;28;20195;-63
2023/07/28 06:42:51;;;;;;;2.38;2.28;;;;;;;20.36;100.00;96209.72;5052462;28;20229;-64
2023/07/28 06:45:17;;;;;;;2.38;2.28;;;;;;;20.46;100.00;96203.88;5052736;28;20207;-63
2023/07/28 06:47:44;;;;;;;1.95;1.85;;;;;;;20.58;100.00;96204.84;5052504;28;20192;-61
2023/07/28 06:50:11;;;;;;;2.45;2.35;;;;;;;20.79;100.00;96209.88;5052589;28;20257;-61
2023/07/28 06:52:38;;;;;;;2.05;1.95;;;;;;;21.05;98.65;96203.47;5052516;28;20659;-61
2023/07/28 06:55:06;;;;;;;1.85;1.75;;;;;;;21.41;96.77;96214.38;5052883;28;20249;-61
2023/07/28 06:57:34;;;;;;;2.80;2.30;;;;;;;21.81;95.44;96212.94;5052300;28;20213;-60
2023/07/28 07:00:03;;;;;;;2.20;2.10;;;;;;;22.06;89.40;96218.28;5052659;28;20211;-62
2023/07/28 07:02:29;;;;;;;2.25;2.15;;;;;;;22.22;89.32;96214.16;5052983;28;20207;-62
2023/07/28 07:04:56;;;;;;;2.17;2.08;;;;;;;22.28;89.80;96215.97;5052627;28;20196;-61
2023/07/28 07:07:22;;;;;;;2.70;2.17;;;;;;;22.29;91.92;96217.59;5052561;28;20281;-61
2023/07/28 07:09:49;;;;;;;2.20;2.00;;;;;;;22.39;93.58;96220.56;5052317;28;21320;-61
2023/07/28 07:12:17;;;;;;;3.72;2.35;;;;;;;22.50;92.09;96218.97;5052152;28;20203;-63
2023/07/28 07:14:44;;;;;;;2.53;2.20;;;;;;;22.74;91.62;96221.56;5052263;28;20602;-63
2023/07/28 07:17:13;;;;;;;2.17;2.00;;;;;;;23.05;89.93;96211.56;5052712;28;20306;-60
2023/07/28 07:19:39;;;;;;;3.97;2.65;;;;;;;23.37;82.23;96215.63;5052321;28;20226;-64
2023/07/28 07:22:06;;;;;;;2.40;2.20;;;;;;;23.43;84.04;96205.78;5052246;28;20204;-62
2023/07/28 07:24:33;;;;;;;2.20;2.10;;;;;;;23.67;87.20;96210.94;5052248;28;20231;-62
2023/07/28 07:26:59;;;;;;;2.08;1.98;;;;;;;23.67;85.12;96199.34;5051552;28;20636;-62
2023/07/28 07:29:27;;;;;;;2.60;1.98;;;;;;;23.77;84.07;96205.00;5072157;28;20243;-64
2023/07/28 07:31:56;;;;;;;2.28;2.17;;;;;;;23.99;83.80;96210.56;5075197;28;20191;-63
2023/07/28 07:34:23;;;;;;;2.10;2.00;;;;;;;23.99;77.75;96215.97;5067611;28;20725;-61
2023/07/28 07:36:49;;;;;;;2.67;2.20;;;;;;;24.09;79.55;96213.50;5052863;28;20555;-62
2023/07/28 07:39:17;;;;;;;2.20;2.10;;;;;;;24.24;79.15;96211.97;5052642;28;20211;-61
2023/07/28 07:41:43;;;;;;;2.30;2.20;;;;;;;24.48;78.82;96204.59;5051906;28;20207;-62
2023/07/28 07:44:11;;;;;;;2.50;2.40;;;;;;;24.47;77.83;96213.78;5052655;28;20195;-61
2023/07/28 07:46:38;;;;;;;2.17;2.08;;;;;;;24.66;77.67;96206.28;5051447;28;20280;-61
2023/07/28 07:49:05;;;;;;;2.10;2.00;;;;;;;24.84;75.95;96216.94;5052704;28;20510;-62
2023/07/28 07:51:33;;;;;;;2.17;2.08;;;;;;;25.06;74.26;96212.47;5052546;28;20294;-61
2023/07/28 07:54:01;;;;;;;3.30;2.00;;;;;;;25.16;74.26;96215.34;5052917;28;20628;-61
2023/07/28 07:56:29;;;;;;;4.63;2.50;;;;;;;25.20;72.76;96211.09;5052603;28;20211;-62
2023/07/28 07:58:55;;;;;;;3.38;2.42;;;;;;;25.22;77.04;96213.56;5052367;28;20316;-62
2023/07/28 08:01:22;;;;;;;2.60;2.40;;;;;;;25.40;75.03;96210.59;5053289;28;20199;-61
2023/07/28 08:03:50;;;;;;;3.22;1.85;;;;;;;25.41;74.30;96214.97;5052113;28;20199;-63
2023/07/28 08:06:18;;;;;;;3.10;2.50;;;;;;;25.70;75.38;96205.69;5052205;28;20214;-63
2023/07/28 08:08:45;;;;;;;2.00;1.90;;;;;;;25.99;74.66;96219.09;5051487;28;20206;-63
2023/07/28 08:11:12;;;;;;;3.13;2.30;;;;;;;25.99;70.51;96210.97;5051618;28;20766;-63
2023/07/28 08:13:38;;;;;;;3.20;2.50;;;;;;;26.08;71.39;96209.47;5051949;28;20195;-63
2023/07/28 08:16:05;;;;;;;2.22;2.13;;;;;;;26.04;68.53;96216.47;5050205;28;20203;-61
2023/07/28 08:18:32;;;;;;;2.42;2.33;;;;;;;25.94;69.21;96213.59;5051028;28;20743;-60
2023/07/28 08:21:00;;;;;;;2.20;2.10;;;;;;;26.10;68.40;96210.06;5051316;28;20284;-63
2023/07/28 08:23:26;;;;;;;3.05;2.00;;;;;;;26.37;72.60;96205.53;5051421;28;20640;-62
2023/07/28 08:25:53;;;;;;;2.72;2.53;;;;;;;26.32;69.24;96216.34;5050738;28;20231;-61
2023/07/28 08:28:19;;;;;;;2.40;2.30;;;;;;;26.61;76.00;96211.50;5050831;28;20207;-62
2023/07/28 08:30:46;;;;;;;2.42;2.22;;;;;;;26.84;68.40;96224.84;5052388;28;20207;-62
2023/07/28 08:33:13;;;;;;;2.22;2.08;;;;;;;26.78;66.39;96212.28;5050931;28;20206;-60
2023/07/28 08:35:41;;;;;;;2.65;2.45;;;;;;;26.55;66.39;96213.34;5051771;28;20199;-62
2023/07/28 08:38:09;;;;;;;2.50;2.40;;;;;;;26.59;67.73;96209.06;5050939;28;20214;-62
2023/07/28 08:40:36;;;;;;;2.90;2.60;;;;;;;26.56;67.99;96217.72;5052013;28;20207;-64
2023/07/28 08:43:02;;;;;;;3.17;2.97;;;;;;;26.16;68.47;96215.28;5051882;28;20218;-62
2023/07/28 08:45:29;;;;;;;3.08;2.60;;;;;;;26.03;69.43;96209.41;5051600;28;20249;-61
2023/07/28 08:47:56;;;;;;;2.83;2.60;;;;;;;26.20;71.80;96216.47;5051275;28;20203;-63
2023/07/28 08:50:22;;;;;;;2.70;2.50;;;;;;;26.42;70.35;96213.75;5051193;28;20290;-65
2023/07/28 08:52:50;;;;;;;3.15;2.67;;;;;;;26.49;67.58;96216.28;5050996;28;20582;-63
2023/07/28 08:55:21;;;;;;;2.55;2.35;;;;;;;26.60;69.71;96209.91;5053662;28;20219;-62
2023/07/28 08:57:48;;;;;;;2.75;2.35;;;;;;;26.86;71.06;96208.28;5054050;28;20203;-62
2023/07/28 09:00:16;;;;;;;2.55;2.45;;;;;;;26.96;67.23;96214.63;5052844;28;20580;-63
2023/07/28 09:02:42;;;;;;;2.60;2.40;;;;;;;26.91;63.35;96211.06;5051805;28;20199;-63
2023/07/28 09:05:20;;;;;;;2.75;2.55;;;;;;;26.99;63.46;96207.91;5051124;28;20210;-63
2023/07/28 09:07:46;;;;;;;2.47;2.38;;;;;;;27.12;65.01;96202.88;5055922;28;20195;-63
2023/07/28 09:10:13;;;;;;;3.08;2.78;;;;;;;27.11;64.92;96206.66;5052182;28;20620;-63
2023/07/28 09:12:46;;;;;;;2.55;2.45;;;;;;;26.90;65.63;96212.94;5052729;28;20207;-63
2023/07/28 09:15:13;;;;;;;2.83;2.63;;;;;;;27.15;65.49;96191.47;5050047;28;20195;-62
2023/07/28 09:17:42;;;;;;;3.13;2.40;;;;;;;26.85;63.35;96204.78;5050140;28;20196;-61
2023/07/28 09:20:14;;;;;;;2.65;2.45;;;;;;;27.03;67.81;96209.81;5050027;28;20215;-63
2023/07/28 09:22:40;;;;;;;2.60;2.40;;;;;;;27.15;68.00;96202.34;5050231;28;20195;-64
2023/07/28 09:25:13;;;;;;;2.70;2.50;;;;;;;26.67;64.92;96211.34;5049963;28;20567;-63
2023/07/28 09:27:40;;;;;;;2.63;2.53;;;;;;;26.65;62.85;96209.94;5049630;28;20654;-63
2023/07/28 09:30:08;;;;;;;2.65;2.45;;;;;;;26.56;63.52;96203.34;5050913;28;20517;-62
2023/07/28 09:32:36;;;;;;;3.42;2.38;;;;;;;26.65;63.41;96201.78;5050286;28;20203;-59
2023/07/28 09:35:09;;;;;;;2.80;2.60;;;;;;;26.63;61.45;96198.53;5050454;28;20579;-61
2023/07/28 09:37:39;;;;;;;3.75;2.90;;;;;;;26.73;63.61;96195.94;5059981;28;20211;-61
2023/07/28 09:40:11;;;;;;;2.83;2.70;;;;;;;26.94;65.68;96189.66;5063130;28;20227;-62
2023/07/28 09:42:38;;;;;;;2.90;2.70;;;;;;;26.96;63.67;96197.56;5062103;28;20326;-61
2023/07/28 09:45:09;;;;;;;3.30;2.45;;;;;;;27.12;65.61;96193.91;5059404;28;20199;-62
2023/07/28 09:47:37;;;;;;;3.97;2.45;;;;;;;27.10;61.42;96202.28;5056873;28;20290;-60
2023/07/28 09:50:04;;;;;;;3.03;2.83;;;;;;;26.95;62.84;96202.16;5055872;28;20207;-59
2023/07/28 09:52:35;;;;;;;3.15;2.85;;;;;;;26.86;63.67;96181.97;5054440;28;20253;-60
2023/07/28 09:55:05;;;;;;;3.90;2.70;;;;;;;27.00;61.80;96187.78;5054449;28;20246;-60
2023/07/28 09:57:37;;;;;;;2.83;2.63;;;;;;;27.10;61.76;96177.84;5054694;28;20203;-59
2023/07/28 10:00:05;;;;;;;3.00;2.80;;;;;;;27.29;64.81;96186.44;5055157;28;20311;-61
2023/07/28 10:02:33;;;;;;;2.95;2.70;;;;;;;27.07;63.38;96182.97;5040521;28;20214;-61
2023/07/28 10:04:59;;;;;;;3.70;3.35;;;;;;;26.86;64.12;96168.41;5037501;28;20270;-60
2023/07/28 10:07:26;;;;;;;2.90;2.70;;;;;;;26.44;63.52;96178.22;5041426;28;20203;-63
2023/07/28 10:09:52;;;;;;;3.15;2.95;;;;;;;26.55;64.32;96180.81;5056290;28;20204;-62
2023/07/28 10:12:20;;;;;;;2.75;2.55;;;;;;;26.77;64.28;96175.34;5055751;28;20241;-61
2023/07/28 10:14:49;;;;;;;2.88;2.67;;;;;;;26.93;65.76;96182.59;5071011;28;20218;-61
2023/07/28 10:17:16;;;;;;;2.63;2.53;;;;;;;26.90;66.45;96187.69;5064565;28;20222;-61
2023/07/28 10:19:44;;;;;;;2.67;2.47;;;;;;;26.73;62.40;96185.91;5049608;28;20345;-61
2023/07/28 10:22:14;;;;;;;3.03;2.83;;;;;;;26.83;61.14;96184.38;5048053;28;20207;-60
2023/07/28 10:24:50;;;;;;;3.28;2.95;;;;;;;26.79;63.87;96189.47;5058087;28;20231;-61
2023/07/28 10:27:29;;;;;;;3.22;3.03;;;;;;;26.96;63.71;96181.28;5046199;28;20234;-62
2023/07/28 10:30:00;;;;;;;7.75;5.90;;;;;;;26.93;61.18;96177.16;5045382;28;20636;-62
2023/07/28 10:32:28;;;;;;;6.20;5.15;;;;;;;26.88;62.96;96184.44;5049452;28;20208;-61
2023/07/28 10:35:01;;;;;;;3.70;3.20;;;;;;;27.00;64.13;96183.19;5050017;28;20212;-60
2023/07/28 10:37:27;;;;;;;3.00;2.80;;;;;;;26.86;61.99;96175.72;5051892;28;20280;-61
2023/07/28 10:40:25;;;;;;;3.10;2.90;;;;;;;26.83;62.57;96168.09;5043272;28;20231;-62
2023/07/28 10:42:52;;;;;;;3.30;3.00;;;;;;;26.91;63.13;96175.78;5047263;28;20204;-61
2023/07/28 10:45:18;;;;;;;3.30;3.10;;;;;;;27.00;63.33;96160.66;5056554;28;20218;-62
2023/07/28 10:47:48;;;;;;;3.22;3.00;;;;;;;27.10;63.15;96158.06;5056358;28;20203;-60
2023/07/28 10:50:20;;;;;;;3.40;3.10;;;;;;;27.15;61.87;96158.91;5056671;28;20195;-60
2023/07/28 10:52:48;;;;;;;3.13;2.92;;;;;;;27.00;62.75;96155.22;5039549;28;20609;-61
2023/07/28 10:55:20;;;;;;;2.90;2.67;;;;;;;26.96;62.42;96160.34;5058547;28;20662;-62
2023/07/28 10:57:48;;;;;;;3.17;2.97;;;;;;;26.85;62.34;96165.97;5058536;28;20229;-60
2023/07/28 11:00:17;;;;;;;3.15;2.95;;;;;;;26.76;62.69;96170.16;5056278;28;20560;-60
2023/07/28 11:02:44;;;;;;;3.00;2.80;;;;;;;26.68;63.87;96164.13;5055829;28;20239;-60
2023/07/28 11:05:13;;;;;;;4.38;3.08;;;;;;;26.51;64.39;96171.53;5055732;28;20203;-61
2023/07/28 11:07:43;;;;;;;3.08;2.90;;;;;;;26.51;63.88;96168.00;5055975;28;20209;-61
2023/07/28 11:10:11;;;;;;;3.45;2.80;;;;;;;26.43;63.93;96163.06;5056681;28;20211;-62
2023/07/28 11:12:41;;;;;;;2.95;2.70;;;;;;;26.34;64.00;96168.09;5057789;28;20532;-61
2023/07/28 11:15:11;;;;;;;3.40;3.10;;;;;;;26.12;63.16;96164.53;5060060;28;20222;-62
2023/07/28 11:17:38;;;;;;;3.70;3.25;;;;;;;26.09;63.23;96162.34;5053167;28;20670;-62
2023/07/28 11:20:07;;;;;;;3.08;2.88;;;;;;;25.96;63.46;96171.66;5055585;28;20227;-61
2023/07/28 11:22:37;;;;;;;3.25;3.05;;;;;;;25.92;65.38;96159.69;5043891;28;20582;-60
2023/07/28 11:25:09;;;;;;;3.50;3.30;;;;;;;25.84;64.55;96162.00;5055612;28;20239;-60
2023/07/28 11:27:37;;;;;;;3.55;3.05;;;;;;;25.75;65.78;96164.34;5055399;28;20296;-60
2023/07/28 11:30:11;;;;;;;3.10;2.90;;;;;;;25.71;64.78;96160.47;5043122;28;20705;-61
2023/07/28 11:32:38;;;;;;;3.30;2.97;;;;;;;25.63;65.39;96159.00;5056290;28;20665;-61
2023/07/28 11:35:08;;;;;;;3.20;3.00;;;;;;;25.59;65.06;96160.56;5055682;28;20593;-60